createdAt,value
2019-02-20T00:00:02.002Z,18.02
2019-02-20T00:01:07.376Z,18.42
2019-02-20T00:02:11.101Z,18.85
2019-02-20T00:03:14.747Z,19.05
2019-02-20T00:04:18.385Z,18.07
2019-02-20T00:05:22.127Z,18.30
2019-02-20T00:06:25.773Z,19.20
2019-02-20T00:07:29.487Z,19.80
2019-02-20T00:08:33.237Z,19.67
2019-02-20T00:09:37.485Z,18.92
2019-02-20T00:10:41.234Z,18.82
2019-02-20T00:11:45.225Z,20.12
2019-02-20T00:12:48.921Z,19.87
2019-02-20T00:13:52.673Z,19.65
2019-02-20T00:14:56.387Z,19.23
2019-02-20T00:16:00.120Z,18.48
2019-02-20T00:17:03.831Z,19.40
2019-02-20T00:18:07.475Z,18.55
2019-02-20T00:19:11.113Z,19.85
2019-02-20T00:20:14.829Z,19.27
2019-02-20T00:21:18.572Z,18.30
2019-02-20T00:22:22.214Z,18.65
2019-02-20T00:23:25.870Z,17.48
2019-02-20T00:24:29.514Z,15.10
2019-02-20T00:25:33.315Z,16.93
2019-02-20T00:26:37.018Z,16.60
2019-02-20T00:27:40.659Z,17.42
2019-02-20T00:28:44.369Z,16.37
2019-02-20T00:29:48.149Z,16.75
2019-02-20T00:30:51.792Z,16.62
2019-02-20T00:31:55.464Z,14.05
2019-02-20T00:32:59.116Z,14.43
2019-02-20T00:34:02.817Z,14.23
2019-02-20T00:35:07.932Z,15.60
2019-02-20T00:36:13.240Z,16.27
2019-02-20T00:37:16.917Z,16.02
2019-02-20T00:38:20.493Z,15.63
2019-02-20T00:39:24.499Z,15.95
2019-02-20T00:40:28.224Z,14.63
2019-02-20T00:41:31.851Z,15.60
2019-02-20T00:42:35.529Z,15.85
2019-02-20T00:43:40.873Z,15.35
2019-02-20T00:44:48.998Z,15.00
2019-02-20T00:46:03.079Z,15.63
2019-02-20T00:47:24.999Z,15.93
2019-02-20T00:48:32.974Z,16.17
2019-02-20T00:49:38.293Z,15.35
2019-02-20T00:50:43.604Z,16.85
2019-02-20T00:51:48.876Z,16.82
2019-02-20T00:53:00.128Z,15.65
2019-02-20T00:54:05.423Z,17.27
2019-02-20T00:55:09.826Z,18.20
2019-02-20T00:56:13.504Z,16.30
2019-02-20T00:57:17.138Z,17.07
2019-02-20T00:58:20.789Z,18.25
2019-02-20T00:59:24.497Z,15.83
2019-02-20T01:00:28.146Z,16.17
2019-02-20T01:01:31.820Z,17.12
2019-02-20T01:02:35.528Z,17.42
2019-02-20T01:03:39.340Z,17.17
2019-02-20T01:04:42.969Z,15.83
2019-02-20T01:05:46.612Z,16.27
2019-02-20T01:06:50.292Z,17.65
2019-02-20T01:07:53.927Z,16.15
2019-02-20T01:08:57.648Z,15.90
2019-02-20T01:10:01.358Z,16.60
2019-02-20T01:11:05.369Z,16.23
2019-02-20T01:12:09.322Z,16.12
2019-02-20T01:13:13.005Z,15.00
2019-02-20T01:14:16.657Z,15.50
2019-02-20T01:15:20.369Z,14.63
2019-02-20T01:16:24.072Z,16.15
2019-02-20T01:17:27.730Z,15.83
2019-02-20T01:18:31.410Z,15.20
2019-02-20T01:19:35.009Z,16.42
2019-02-20T01:20:38.910Z,14.28
2019-02-20T01:21:42.551Z,16.10
2019-02-20T01:22:46.236Z,15.83
2019-02-20T01:23:51.513Z,14.80
2019-02-20T01:24:55.077Z,14.33
2019-02-20T01:25:58.725Z,14.20
2019-02-20T01:27:02.278Z,14.35
2019-02-20T01:28:05.878Z,13.45
2019-02-20T01:29:09.518Z,13.83
2019-02-20T01:30:13.765Z,14.83
2019-02-20T01:31:17.414Z,14.70
2019-02-20T01:32:21.046Z,14.28
2019-02-20T01:33:24.722Z,13.85
2019-02-20T01:34:28.358Z,14.75
2019-02-20T01:35:31.998Z,15.00
2019-02-20T01:36:35.950Z,14.53
2019-02-20T01:37:39.624Z,14.85
2019-02-20T01:38:44.786Z,14.60
2019-02-20T01:39:49.557Z,16.23
2019-02-20T01:40:53.461Z,15.95
2019-02-20T01:41:57.106Z,15.20
2019-02-20T01:43:00.737Z,16.00
2019-02-20T01:44:04.382Z,16.55
2019-02-20T01:45:08.841Z,16.40
2019-02-20T01:46:12.401Z,15.93
2019-02-20T01:47:16.033Z,15.90
2019-02-20T01:48:19.666Z,15.48
2019-02-20T01:49:23.303Z,16.02
2019-02-20T01:50:26.909Z,16.12
2019-02-20T01:51:30.538Z,16.17
2019-02-20T01:52:34.173Z,15.63
2019-02-20T01:53:37.823Z,16.52
2019-02-20T01:54:41.383Z,17.25
2019-02-20T01:55:45.072Z,17.73
2019-02-20T01:56:48.699Z,17.37
2019-02-20T01:57:52.355Z,15.98
2019-02-20T01:58:55.979Z,16.15
2019-02-20T01:59:59.626Z,16.80
2019-02-20T02:01:03.325Z,18.15
2019-02-20T02:02:06.979Z,18.95
2019-02-20T02:03:10.555Z,18.87
2019-02-20T02:04:14.197Z,18.00
2019-02-20T02:05:17.758Z,20.37
2019-02-20T02:06:21.418Z,18.52
2019-02-20T02:07:25.065Z,19.85
2019-02-20T02:08:28.699Z,20.37
2019-02-20T02:09:32.346Z,19.00
2019-02-20T02:10:35.984Z,19.05
2019-02-20T02:11:39.631Z,21.75
2019-02-20T02:12:43.208Z,21.45
2019-02-20T02:13:46.767Z,24.87
2019-02-20T02:14:50.324Z,24.27
2019-02-20T02:15:54.440Z,22.93
2019-02-20T02:16:58.114Z,23.50
2019-02-20T02:18:01.744Z,23.20
2019-02-20T02:19:05.485Z,21.07
2019-02-20T02:20:10.138Z,21.82
2019-02-20T02:21:13.768Z,20.68
2019-02-20T02:22:17.423Z,20.72
2019-02-20T02:23:21.057Z,22.30
2019-02-20T02:24:24.693Z,20.45
2019-02-20T02:25:28.494Z,20.45
2019-02-20T02:26:32.144Z,20.27
2019-02-20T02:27:35.788Z,21.10
2019-02-20T02:28:39.413Z,20.40
2019-02-20T02:29:43.058Z,19.95
2019-02-20T02:30:46.757Z,20.00
2019-02-20T02:31:50.399Z,19.25
2019-02-20T02:32:54.128Z,21.37
2019-02-20T02:33:57.764Z,20.30
2019-02-20T02:35:01.392Z,20.27
2019-02-20T02:36:05.336Z,19.45
2019-02-20T02:37:08.958Z,19.52
2019-02-20T02:38:12.599Z,20.48
2019-02-20T02:39:16.242Z,20.10
2019-02-20T02:40:19.888Z,21.02
2019-02-20T02:41:23.555Z,19.23
2019-02-20T02:42:27.181Z,18.75
2019-02-20T02:43:30.854Z,19.92
2019-02-20T02:44:34.425Z,20.30
2019-02-20T02:45:38.066Z,20.72
2019-02-20T02:46:41.616Z,19.45
2019-02-20T02:47:45.224Z,19.37
2019-02-20T02:48:48.900Z,21.23
2019-02-20T02:49:52.526Z,20.27
2019-02-20T02:50:56.156Z,19.55
2019-02-20T02:51:59.800Z,20.37
2019-02-20T02:53:03.437Z,19.07
2019-02-20T02:54:07.105Z,19.00
2019-02-20T02:55:10.831Z,19.67
2019-02-20T02:56:14.469Z,20.75
2019-02-20T02:57:18.112Z,20.95
2019-02-20T02:58:21.737Z,20.75
2019-02-20T02:59:25.422Z,18.52
2019-02-20T03:00:29.045Z,21.40
2019-02-20T03:01:32.607Z,20.02
2019-02-20T03:02:36.632Z,19.52
2019-02-20T03:03:40.267Z,21.40
2019-02-20T03:04:44.221Z,19.98
2019-02-20T03:05:48.225Z,18.62
2019-02-20T03:06:51.806Z,19.45
2019-02-20T03:07:55.440Z,19.05
2019-02-20T03:08:59.072Z,20.70
2019-02-20T03:10:02.749Z,20.17
2019-02-20T03:11:06.792Z,18.45
2019-02-20T03:12:10.435Z,21.77
2019-02-20T03:13:14.157Z,20.65
2019-02-20T03:14:17.792Z,21.10
2019-02-20T03:15:21.460Z,21.68
2019-02-20T03:16:25.092Z,21.57
2019-02-20T03:17:28.788Z,20.60
2019-02-20T03:18:32.434Z,20.55
2019-02-20T03:19:36.654Z,19.77
2019-02-20T03:20:40.291Z,18.57
2019-02-20T03:21:43.937Z,20.02
2019-02-20T03:22:47.562Z,19.60
2019-02-20T03:23:51.206Z,19.77
2019-02-20T03:24:54.849Z,20.23
2019-02-20T03:25:58.456Z,19.27
2019-02-20T03:27:02.028Z,19.62
2019-02-20T03:28:05.669Z,19.60
2019-02-20T03:29:09.344Z,20.43
2019-02-20T03:30:13.077Z,20.92
2019-02-20T03:31:16.735Z,21.68
2019-02-20T03:32:20.379Z,20.25
2019-02-20T03:33:24.018Z,21.50
2019-02-20T03:34:27.720Z,20.12
2019-02-20T03:35:31.277Z,20.35
2019-02-20T03:36:35.097Z,20.27
2019-02-20T03:37:38.660Z,20.68
2019-02-20T03:38:42.291Z,22.35
2019-02-20T03:39:45.855Z,20.82
2019-02-20T03:40:49.493Z,20.35
2019-02-20T03:41:53.179Z,20.70
2019-02-20T03:42:56.817Z,21.02
2019-02-20T03:44:00.450Z,20.55
2019-02-20T03:45:04.702Z,20.30
2019-02-20T03:46:08.332Z,22.13
2019-02-20T03:47:11.969Z,21.48
2019-02-20T03:48:15.617Z,20.62
2019-02-20T03:49:19.253Z,20.77
2019-02-20T03:50:22.944Z,19.92
2019-02-20T03:51:26.573Z,21.20
2019-02-20T03:52:30.195Z,21.93
2019-02-20T03:53:33.769Z,21.85
2019-02-20T03:54:37.436Z,21.60
2019-02-20T03:55:41.059Z,21.00
2019-02-20T03:56:44.827Z,20.25
2019-02-20T03:57:48.459Z,20.77
2019-02-20T03:58:52.015Z,21.30
2019-02-20T03:59:56.140Z,20.68
2019-02-20T04:00:59.775Z,20.57
2019-02-20T04:02:03.404Z,19.55
2019-02-20T04:03:07.387Z,20.15
2019-02-20T04:04:11.023Z,21.23
2019-02-20T04:05:14.702Z,21.17
2019-02-20T04:06:18.329Z,19.77
2019-02-20T04:07:21.969Z,20.45
2019-02-20T04:08:25.613Z,20.27
2019-02-20T04:09:29.255Z,22.90
2019-02-20T04:10:32.926Z,21.87
2019-02-20T04:11:36.567Z,22.40
2019-02-20T04:12:40.537Z,22.70
2019-02-20T04:13:44.194Z,23.07
2019-02-20T04:14:47.834Z,22.37
2019-02-20T04:15:51.517Z,22.20
2019-02-20T04:16:55.155Z,22.15
2019-02-20T04:17:58.785Z,23.52
2019-02-20T04:19:02.364Z,23.35
2019-02-20T04:20:07.592Z,22.50
2019-02-20T04:21:11.270Z,22.00
2019-02-20T04:22:14.828Z,22.42
2019-02-20T04:23:18.480Z,23.25
2019-02-20T04:24:22.115Z,22.02
2019-02-20T04:25:25.751Z,24.12
2019-02-20T04:26:29.418Z,23.18
2019-02-20T04:27:33.059Z,24.85
2019-02-20T04:28:36.781Z,24.35
2019-02-20T04:29:40.802Z,23.15
2019-02-20T04:30:44.459Z,22.90
2019-02-20T04:31:48.166Z,23.35
2019-02-20T04:32:51.808Z,23.05
2019-02-20T04:33:55.449Z,22.05
2019-02-20T04:34:59.020Z,22.05
2019-02-20T04:36:02.731Z,26.27
2019-02-20T04:37:06.760Z,41.08
2019-02-20T04:38:10.401Z,27.45
2019-02-20T04:39:14.007Z,25.15
2019-02-20T04:40:17.650Z,23.42
2019-02-20T04:41:21.299Z,23.80
2019-02-20T04:42:24.971Z,22.22
2019-02-20T04:43:28.614Z,23.38
2019-02-20T04:44:32.610Z,22.17
2019-02-20T04:45:36.241Z,24.67
2019-02-20T04:46:39.874Z,23.10
2019-02-20T04:47:43.546Z,22.20
2019-02-20T04:48:47.180Z,23.98
2019-02-20T04:49:50.811Z,22.55
2019-02-20T04:50:54.544Z,23.15
2019-02-20T04:51:58.571Z,22.17
2019-02-20T04:53:02.159Z,22.27
2019-02-20T04:54:12.931Z,20.88
2019-02-20T04:55:11.094Z,20.90
2019-02-20T04:56:14.745Z,21.50
2019-02-20T04:57:18.388Z,22.45
2019-02-20T04:58:23.161Z,22.42
2019-02-20T04:59:26.797Z,23.40
2019-02-20T05:00:30.851Z,24.45
2019-02-20T05:01:34.608Z,26.90
2019-02-20T05:02:38.318Z,29.85
2019-02-20T05:03:41.957Z,33.25
2019-02-20T05:04:45.595Z,26.60
2019-02-20T05:05:49.241Z,24.75
2019-02-20T05:06:52.902Z,24.82
2019-02-20T05:07:56.484Z,26.75
2019-02-20T05:09:00.192Z,25.08
2019-02-20T05:10:03.930Z,24.50
2019-02-20T05:11:07.587Z,23.65
2019-02-20T05:12:11.219Z,24.40
2019-02-20T05:13:14.806Z,24.87
2019-02-20T05:14:18.790Z,23.95
2019-02-20T05:15:22.433Z,24.00
2019-02-20T05:16:25.954Z,26.40
2019-02-20T05:17:29.578Z,26.33
2019-02-20T05:18:33.233Z,25.02
2019-02-20T05:19:36.901Z,24.43
2019-02-20T05:20:40.559Z,23.40
2019-02-20T05:21:44.182Z,24.90
2019-02-20T05:22:47.750Z,25.48
2019-02-20T05:23:51.387Z,27.20
2019-02-20T05:24:55.067Z,26.93
2019-02-20T05:25:58.696Z,25.90
2019-02-20T05:27:02.336Z,25.27
2019-02-20T05:28:05.981Z,24.63
2019-02-20T05:29:09.626Z,25.68
2019-02-20T05:30:13.611Z,25.72
2019-02-20T05:31:17.262Z,25.00
2019-02-20T05:32:20.899Z,25.48
2019-02-20T05:33:24.535Z,26.00
2019-02-20T05:34:28.252Z,24.45
2019-02-20T05:35:31.964Z,24.20
2019-02-20T05:36:35.621Z,23.18
2019-02-20T05:37:39.739Z,24.07
2019-02-20T05:38:43.478Z,25.72
2019-02-20T05:39:47.057Z,25.10
2019-02-20T05:40:50.662Z,25.20
2019-02-20T05:41:54.225Z,25.20
2019-02-20T05:42:58.231Z,25.77
2019-02-20T05:44:01.878Z,25.97
2019-02-20T05:45:06.512Z,29.63
2019-02-20T05:46:10.183Z,30.20
2019-02-20T05:47:13.831Z,30.37
2019-02-20T05:48:17.406Z,27.52
2019-02-20T05:49:21.047Z,25.68
2019-02-20T05:50:24.611Z,25.12
2019-02-20T05:51:28.849Z,27.52
2019-02-20T05:52:32.943Z,27.55
2019-02-20T05:53:36.511Z,26.15
2019-02-20T05:54:40.073Z,28.30
2019-02-20T05:55:43.740Z,27.40
2019-02-20T05:56:47.407Z,27.70
2019-02-20T05:57:51.032Z,27.02
2019-02-20T05:58:54.598Z,28.60
2019-02-20T05:59:58.162Z,27.85
2019-02-20T06:01:01.863Z,25.45
2019-02-20T06:02:05.573Z,26.25
2019-02-20T06:03:09.155Z,24.23
2019-02-20T06:04:12.858Z,23.45
2019-02-20T06:05:16.510Z,23.00
2019-02-20T06:06:20.188Z,25.85
2019-02-20T06:07:23.837Z,27.87
2019-02-20T06:08:27.468Z,25.95
2019-02-20T06:09:31.117Z,24.27
2019-02-20T06:10:34.759Z,25.72
2019-02-20T06:11:38.436Z,26.15
2019-02-20T06:12:42.060Z,23.95
2019-02-20T06:13:45.678Z,24.85
2019-02-20T06:14:49.315Z,24.57
2019-02-20T06:15:52.946Z,24.85
2019-02-20T06:16:56.542Z,24.57
2019-02-20T06:18:00.354Z,24.07
2019-02-20T06:19:04.406Z,25.52
2019-02-20T06:20:09.751Z,26.42
2019-02-20T06:21:13.383Z,28.80
2019-02-20T06:22:17.054Z,33.65
2019-02-20T06:23:20.703Z,33.33
2019-02-20T06:24:24.339Z,35.65
2019-02-20T06:25:28.088Z,38.25
2019-02-20T06:26:31.770Z,39.58
2019-02-20T06:27:35.428Z,42.95
2019-02-20T06:28:39.131Z,45.65
2019-02-20T06:29:42.774Z,44.45
2019-02-20T06:30:46.440Z,45.33
2019-02-20T06:31:50.081Z,46.90
2019-02-20T06:32:53.849Z,46.68
2019-02-20T06:33:57.500Z,50.67
2019-02-20T06:35:01.069Z,55.28
2019-02-20T06:36:04.718Z,54.77
2019-02-20T06:37:08.361Z,53.10
2019-02-20T06:38:12.042Z,53.63
2019-02-20T06:39:15.676Z,49.85
2019-02-20T06:40:19.318Z,49.98
2019-02-20T06:41:23.033Z,46.75
2019-02-20T06:42:26.987Z,43.20
2019-02-20T06:43:30.561Z,42.65
2019-02-20T06:44:34.193Z,42.23
2019-02-20T06:45:37.842Z,39.80
2019-02-20T06:46:41.473Z,38.30
2019-02-20T06:47:45.115Z,38.20
2019-02-20T06:48:48.706Z,39.65
2019-02-20T06:49:52.342Z,39.42
2019-02-20T06:50:55.982Z,40.20
2019-02-20T06:51:59.626Z,40.40
2019-02-20T06:53:03.202Z,40.03
2019-02-20T06:54:07.210Z,39.05
2019-02-20T06:55:12.532Z,41.63
2019-02-20T06:56:16.275Z,48.75
2019-02-20T06:57:19.929Z,43.13
2019-02-20T06:58:23.501Z,42.27
2019-02-20T06:59:27.169Z,41.53
2019-02-20T07:00:30.882Z,44.13
2019-02-20T07:01:34.521Z,40.38
2019-02-20T07:02:38.165Z,39.73
2019-02-20T07:03:42.184Z,39.00
2019-02-20T07:05:22.315Z,49.83
2019-02-20T07:06:34.865Z,43.42
2019-02-20T07:07:50.505Z,46.45
2019-02-20T07:09:04.569Z,49.35
2019-02-20T07:10:29.430Z,49.58
2019-02-20T07:11:41.453Z,46.50
2019-02-20T07:12:50.768Z,45.05
2019-02-20T07:13:57.319Z,42.60
2019-02-20T07:15:16.155Z,46.08
2019-02-20T07:16:34.777Z,53.80
2019-02-20T07:17:44.053Z,52.08
2019-02-20T07:18:53.742Z,56.25
2019-02-20T07:20:15.266Z,54.05
2019-02-20T07:21:21.816Z,48.55
2019-02-20T07:22:51.157Z,47.83
2019-02-20T07:23:57.698Z,50.30
2019-02-20T07:25:04.248Z,50.23
2019-02-20T07:26:41.382Z,48.55
2019-02-20T07:28:03.237Z,44.85
2019-02-20T07:29:15.345Z,42.93
2019-02-20T07:30:18.983Z,40.63
2019-02-20T07:31:22.634Z,42.58
2019-02-20T07:32:26.378Z,39.50
2019-02-20T07:33:30.050Z,39.73
2019-02-20T07:34:34.097Z,42.23
2019-02-20T07:35:37.738Z,41.80
2019-02-20T07:36:41.380Z,44.60
2019-02-20T07:37:45.020Z,45.05
2019-02-20T07:38:48.699Z,42.93
2019-02-20T07:39:52.444Z,44.40
2019-02-20T07:40:56.029Z,40.85
2019-02-20T07:41:59.657Z,41.63
2019-02-20T07:43:03.309Z,41.48
2019-02-20T07:44:07.012Z,42.05
2019-02-20T07:45:11.159Z,41.77
2019-02-20T07:46:14.809Z,41.90
2019-02-20T07:47:18.399Z,41.98
2019-02-20T07:48:22.276Z,43.00
2019-02-20T07:49:25.967Z,42.00
2019-02-20T07:50:29.603Z,42.62
2019-02-20T07:51:33.259Z,40.92
2019-02-20T07:52:36.828Z,41.30
2019-02-20T07:53:40.485Z,41.45
2019-02-20T07:54:44.324Z,37.90
2019-02-20T07:55:47.967Z,37.27
2019-02-20T07:56:51.602Z,36.90
2019-02-20T07:57:55.234Z,34.97
2019-02-20T07:58:58.871Z,32.23
2019-02-20T08:00:02.546Z,31.97
2019-02-20T08:01:06.188Z,32.97
2019-02-20T08:02:09.843Z,33.37
2019-02-20T08:03:13.577Z,36.90
2019-02-20T08:04:17.274Z,32.93
2019-02-20T08:05:20.953Z,33.07
2019-02-20T08:06:24.959Z,35.07
2019-02-20T08:07:28.596Z,32.50
2019-02-20T08:08:32.247Z,32.73
2019-02-20T08:09:35.879Z,31.90
2019-02-20T08:10:39.625Z,32.67
2019-02-20T08:11:43.265Z,31.03
2019-02-20T08:12:46.899Z,31.63
2019-02-20T08:13:50.566Z,29.57
2019-02-20T08:14:54.105Z,30.67
2019-02-20T08:15:57.786Z,32.10
2019-02-20T08:17:01.413Z,32.47
2019-02-20T08:18:05.049Z,30.33
2019-02-20T08:19:08.681Z,30.00
2019-02-20T08:20:12.390Z,29.07
2019-02-20T08:21:15.993Z,30.07
2019-02-20T08:22:19.641Z,30.43
2019-02-20T08:23:23.298Z,31.63
2019-02-20T08:24:26.928Z,30.00
2019-02-20T08:25:30.584Z,32.40
2019-02-20T08:26:34.315Z,30.00
2019-02-20T08:27:37.963Z,28.87
2019-02-20T08:28:41.530Z,29.67
2019-02-20T08:29:45.488Z,29.57
2019-02-20T08:30:49.131Z,29.17
2019-02-20T08:31:53.914Z,27.83
2019-02-20T08:32:57.680Z,24.90
2019-02-20T08:34:01.331Z,25.23
2019-02-20T08:35:06.270Z,25.13
2019-02-20T08:36:09.914Z,27.03
2019-02-20T08:37:13.588Z,27.67
2019-02-20T08:38:17.235Z,26.50
2019-02-20T08:39:20.879Z,26.77
2019-02-20T08:40:24.522Z,27.23
2019-02-20T08:41:28.161Z,26.37
2019-02-20T08:42:31.905Z,24.37
2019-02-20T08:43:35.505Z,25.20
2019-02-20T08:44:39.240Z,25.27
2019-02-20T08:45:42.877Z,24.03
2019-02-20T08:46:46.522Z,24.43
2019-02-20T08:47:50.199Z,25.97
2019-02-20T08:48:54.232Z,24.97
2019-02-20T08:49:57.874Z,25.13
2019-02-20T08:51:01.517Z,23.70
2019-02-20T08:52:05.162Z,24.03
2019-02-20T08:53:09.314Z,24.67
2019-02-20T08:54:12.944Z,23.07
2019-02-20T08:55:18.742Z,23.57
2019-02-20T08:56:21.990Z,22.80
2019-02-20T08:57:25.670Z,20.77
2019-02-20T08:58:29.302Z,24.00
2019-02-20T08:59:33.022Z,23.07
2019-02-20T09:00:36.665Z,23.00
2019-02-20T09:01:40.365Z,24.07
2019-02-20T09:02:44.032Z,23.90
2019-02-20T09:03:47.609Z,23.80
2019-02-20T09:04:51.252Z,23.37
2019-02-20T09:05:54.902Z,22.60
2019-02-20T09:06:58.513Z,23.70
2019-02-20T09:08:02.084Z,23.60
2019-02-20T09:09:06.713Z,22.47
2019-02-20T09:10:12.462Z,23.50
2019-02-20T09:11:16.125Z,22.33
2019-02-20T09:12:19.776Z,21.23
2019-02-20T09:13:23.481Z,19.80
2019-02-20T09:14:27.202Z,20.43
2019-02-20T09:15:30.782Z,19.93
2019-02-20T09:16:34.513Z,20.60
2019-02-20T09:17:38.113Z,21.53
2019-02-20T09:18:41.788Z,20.93
2019-02-20T09:19:45.430Z,19.90
2019-02-20T09:20:49.079Z,20.37
2019-02-20T09:21:52.717Z,21.53
2019-02-20T09:22:56.386Z,19.27
2019-02-20T09:24:00.024Z,19.13
2019-02-20T09:25:03.671Z,19.07
2019-02-20T09:26:07.324Z,19.87
2019-02-20T09:27:10.910Z,18.40
2019-02-20T09:28:14.596Z,18.40
2019-02-20T09:29:18.224Z,19.10
2019-02-20T09:30:28.237Z,19.70
2019-02-20T09:31:27.239Z,18.47
2019-02-20T09:32:30.875Z,18.77
2019-02-20T09:33:34.545Z,17.13
2019-02-20T09:34:38.192Z,17.80
2019-02-20T09:35:41.835Z,18.03
2019-02-20T09:36:45.401Z,18.10
2019-02-20T09:37:49.043Z,17.20
2019-02-20T09:38:52.719Z,17.23
2019-02-20T09:39:56.361Z,17.10
2019-02-20T09:41:00.012Z,17.07
2019-02-20T09:42:04.445Z,16.60
2019-02-20T09:43:08.098Z,16.67
2019-02-20T09:44:11.759Z,16.53
2019-02-20T09:45:15.399Z,17.30
2019-02-20T09:46:19.060Z,16.90
2019-02-20T09:47:22.678Z,16.67
2019-02-20T09:48:26.340Z,16.20
2019-02-20T09:49:29.942Z,16.47
2019-02-20T09:50:33.582Z,17.03
2019-02-20T09:51:37.226Z,17.33
2019-02-20T09:52:40.867Z,15.33
2019-02-20T09:53:44.441Z,16.83
2019-02-20T09:54:48.107Z,15.33
2019-02-20T09:55:52.095Z,16.30
2019-02-20T09:56:55.769Z,15.77
2019-02-20T09:57:59.413Z,15.63
2019-02-20T09:59:03.054Z,14.63
2019-02-20T10:00:15.056Z,15.57
2019-02-20T10:01:18.682Z,15.70
2019-02-20T10:02:22.329Z,15.90
2019-02-20T10:03:25.904Z,15.83
2019-02-20T10:04:29.538Z,15.60
2019-02-20T10:05:33.283Z,14.43
2019-02-20T10:06:37.237Z,14.80
2019-02-20T10:07:40.876Z,15.23
2019-02-20T10:08:44.595Z,14.07
2019-02-20T10:09:48.158Z,14.93
2019-02-20T10:10:51.831Z,14.33
2019-02-20T10:11:55.529Z,15.07
2019-02-20T10:12:59.111Z,14.13
2019-02-20T10:14:02.761Z,13.70
2019-02-20T10:15:12.441Z,13.53
2019-02-20T10:16:16.124Z,14.27
2019-02-20T10:17:19.768Z,13.33
2019-02-20T10:18:23.742Z,15.10
2019-02-20T10:19:27.397Z,14.63
2019-02-20T10:20:31.029Z,13.70
2019-02-20T10:21:34.769Z,13.13
2019-02-20T10:22:38.420Z,12.20
2019-02-20T10:23:42.058Z,12.60
2019-02-20T10:24:45.702Z,11.77
2019-02-20T10:25:49.293Z,10.80
2019-02-20T10:27:00.390Z,13.07
2019-02-20T10:27:58.364Z,10.63
2019-02-20T10:29:01.996Z,9.93
2019-02-20T10:30:08.565Z,10.70
2019-02-20T10:31:12.133Z,10.00
2019-02-20T10:32:15.891Z,11.17
2019-02-20T10:33:19.525Z,10.33
2019-02-20T10:34:23.165Z,10.07
2019-02-20T10:35:26.942Z,9.80
2019-02-20T10:36:30.572Z,11.20
2019-02-20T10:37:34.173Z,10.60
2019-02-20T10:38:37.811Z,9.80
2019-02-20T10:39:41.458Z,10.47
2019-02-20T10:40:45.096Z,10.17
2019-02-20T10:41:48.659Z,10.43
2019-02-20T10:42:52.636Z,9.90
2019-02-20T10:43:56.207Z,10.40
2019-02-20T10:45:01.243Z,10.50
2019-02-20T10:46:04.901Z,10.97
2019-02-20T10:47:08.542Z,11.20
2019-02-20T10:48:12.586Z,11.03
2019-02-20T10:49:16.275Z,10.57
2019-02-20T10:50:19.911Z,9.73
2019-02-20T10:51:23.551Z,10.27
2019-02-20T10:52:27.193Z,11.47
2019-02-20T10:53:30.868Z,11.53
2019-02-20T10:54:34.508Z,12.97
2019-02-20T10:55:38.147Z,11.13
2019-02-20T10:56:41.786Z,11.17
2019-02-20T10:57:45.427Z,10.60
2019-02-20T10:58:49.104Z,10.80
2019-02-20T10:59:52.677Z,11.53
2019-02-20T11:00:56.304Z,11.63
2019-02-20T11:02:00.287Z,10.30
2019-02-20T11:03:03.931Z,10.13
2019-02-20T11:04:07.594Z,10.15
2019-02-20T11:05:11.237Z,10.68
2019-02-20T11:06:14.884Z,10.53
2019-02-20T11:07:18.447Z,10.20
2019-02-20T11:08:22.092Z,10.40
2019-02-20T11:09:25.773Z,10.43
2019-02-20T11:10:29.409Z,10.23
2019-02-20T11:11:32.989Z,10.80
2019-02-20T11:12:36.625Z,10.68
2019-02-20T11:13:40.270Z,10.20
2019-02-20T11:14:43.940Z,10.58
2019-02-20T11:15:47.584Z,10.50
2019-02-20T11:16:51.452Z,10.95
2019-02-20T11:17:55.087Z,11.97
2019-02-20T11:18:58.740Z,10.00
2019-02-20T11:20:02.605Z,10.68
2019-02-20T11:21:06.250Z,9.95
2019-02-20T11:22:09.891Z,11.20
2019-02-20T11:23:13.905Z,11.60
2019-02-20T11:24:17.957Z,20.72
2019-02-20T11:25:21.706Z,15.75
2019-02-20T11:26:25.350Z,11.38
2019-02-20T11:27:28.994Z,10.82
2019-02-20T11:28:32.574Z,11.35
2019-02-20T11:29:36.226Z,11.68
2019-02-20T11:30:40.005Z,11.68
2019-02-20T11:31:43.653Z,10.70
2019-02-20T11:32:47.656Z,10.58
2019-02-20T11:33:51.293Z,10.85
2019-02-20T11:34:55.289Z,10.40
2019-02-20T11:35:58.883Z,10.68
2019-02-20T11:37:02.532Z,10.15
2019-02-20T11:38:06.178Z,9.90
2019-02-20T11:39:11.609Z,9.90
2019-02-20T11:40:15.557Z,10.58
2019-02-20T11:41:19.221Z,9.80
2019-02-20T11:42:22.913Z,10.23
2019-02-20T11:43:26.549Z,9.78
2019-02-20T11:44:30.184Z,10.10
2019-02-20T11:45:33.756Z,10.18
2019-02-20T11:46:37.431Z,10.10
2019-02-20T11:47:41.074Z,10.05
2019-02-20T11:48:44.726Z,10.55
2019-02-20T11:49:48.365Z,12.07
2019-02-20T11:50:51.934Z,10.43
2019-02-20T11:51:55.611Z,11.75
2019-02-20T11:52:59.257Z,10.95
2019-02-20T11:54:03.933Z,10.25
2019-02-20T11:55:09.530Z,9.93
2019-02-20T11:56:13.171Z,10.65
2019-02-20T11:57:16.845Z,12.85
2019-02-20T11:58:20.497Z,10.28
2019-02-20T11:59:24.138Z,10.58
2019-02-20T12:00:27.768Z,9.35
2019-02-20T12:01:31.346Z,8.83
2019-02-20T12:02:37.514Z,9.80
2019-02-20T12:03:40.299Z,9.03
2019-02-20T12:04:43.944Z,9.53
2019-02-20T12:05:47.586Z,11.18
2019-02-20T12:06:51.265Z,10.43
2019-02-20T12:07:55.255Z,10.13
2019-02-20T12:08:58.902Z,10.72
2019-02-20T12:10:02.470Z,9.78
2019-02-20T12:11:06.219Z,10.03
2019-02-20T12:12:10.813Z,10.55
2019-02-20T12:13:14.529Z,10.45
2019-02-20T12:14:18.114Z,10.53
2019-02-20T12:15:21.752Z,11.70
2019-02-20T12:16:27.232Z,10.88
2019-02-20T12:17:30.844Z,10.18
2019-02-20T12:18:34.516Z,9.75
2019-02-20T12:19:39.387Z,10.68
2019-02-20T12:20:43.178Z,10.35
2019-02-20T12:21:46.824Z,10.70
2019-02-20T12:22:50.400Z,9.38
2019-02-20T12:23:54.068Z,9.78
2019-02-20T12:24:59.323Z,9.35
2019-02-20T12:26:03.167Z,8.65
2019-02-20T12:27:06.808Z,9.25
2019-02-20T12:28:10.468Z,9.08
2019-02-20T12:29:14.135Z,9.28
2019-02-20T12:30:17.770Z,8.10
2019-02-20T12:31:21.470Z,9.08
2019-02-20T12:32:25.311Z,8.45
2019-02-20T12:33:28.949Z,8.30
2019-02-20T12:34:32.663Z,8.40
2019-02-20T12:35:36.308Z,10.50
2019-02-20T12:36:39.956Z,11.83
2019-02-20T12:37:43.593Z,10.65
2019-02-20T12:38:47.166Z,11.25
2019-02-20T12:39:50.850Z,10.40
2019-02-20T12:40:54.498Z,10.20
2019-02-20T12:41:58.138Z,9.28
2019-02-20T12:43:01.768Z,9.78
2019-02-20T12:44:05.415Z,32.08
2019-02-20T12:45:09.686Z,14.23
2019-02-20T12:46:13.322Z,10.28
2019-02-20T12:47:16.897Z,11.03
2019-02-20T12:48:20.539Z,10.00
2019-02-20T12:49:24.092Z,9.13
2019-02-20T12:50:27.734Z,9.00
2019-02-20T12:51:31.369Z,9.90
2019-02-20T12:52:35.399Z,11.30
2019-02-20T12:53:39.044Z,14.70
2019-02-20T12:54:42.601Z,9.70
2019-02-20T12:55:46.299Z,8.30
2019-02-20T12:56:49.942Z,8.58
2019-02-20T12:57:53.615Z,12.60
2019-02-20T12:58:57.272Z,17.50
2019-02-20T13:00:00.932Z,15.80
2019-02-20T13:01:05.050Z,12.23
2019-02-20T13:02:08.693Z,10.63
2019-02-20T13:03:12.369Z,14.55
2019-02-20T13:04:16.328Z,25.88
2019-02-20T13:05:20.029Z,15.98
2019-02-20T13:06:23.685Z,16.12
2019-02-20T13:07:27.326Z,19.27
2019-02-20T13:08:30.904Z,22.15
2019-02-20T13:09:34.611Z,15.13
2019-02-20T13:10:38.617Z,10.90
2019-02-20T13:11:42.263Z,10.53
2019-02-20T13:12:46.808Z,11.03
2019-02-20T13:13:50.658Z,10.23
2019-02-20T13:14:54.236Z,10.43
2019-02-20T13:15:57.872Z,11.18
2019-02-20T13:17:01.520Z,16.97
2019-02-20T13:18:05.153Z,10.18
2019-02-20T13:19:08.824Z,9.58
2019-02-20T13:20:12.722Z,11.80
2019-02-20T13:21:16.362Z,13.28
2019-02-20T13:22:20.005Z,14.80
2019-02-20T13:23:23.655Z,10.08
2019-02-20T13:24:27.331Z,11.88
2019-02-20T13:25:30.967Z,11.40
2019-02-20T13:26:43.611Z,14.35
2019-02-20T13:27:47.192Z,10.80
2019-02-20T13:28:50.825Z,14.00
2019-02-20T13:29:54.562Z,13.55
2019-02-20T13:30:58.223Z,13.40
2019-02-20T13:32:01.858Z,14.65
2019-02-20T13:33:05.503Z,15.78
2019-02-20T13:34:09.132Z,14.63
2019-02-20T13:35:12.857Z,13.32
2019-02-20T13:36:16.927Z,11.25
2019-02-20T13:37:20.517Z,11.68
2019-02-20T13:38:24.315Z,11.70
2019-02-20T13:39:29.598Z,11.50
2019-02-20T13:40:34.481Z,11.78
2019-02-20T13:41:39.860Z,10.60
2019-02-20T13:42:43.604Z,10.48
2019-02-20T13:43:47.179Z,10.20
2019-02-20T13:44:50.860Z,13.08
2019-02-20T13:45:54.574Z,15.00
2019-02-20T13:46:58.288Z,12.70